createdAt,value
2023-01-31T00:01:47.953Z,1.40
2023-01-31T00:06:51.552Z,1.40
2023-01-31T00:11:53.468Z,1.30
2023-01-31T00:16:55.363Z,1.40
2023-01-31T00:21:57.930Z,1.40
2023-01-31T00:26:59.670Z,1.40
2023-01-31T00:32:01.528Z,1.40
2023-01-31T00:37:03.383Z,1.40
2023-01-31T00:42:07.737Z,1.40
2023-01-31T00:47:09.506Z,1.40
2023-01-31T00:52:11.347Z,1.40
2023-01-31T00:57:13.078Z,1.40
2023-01-31T01:02:15.047Z,1.40
2023-01-31T01:07:16.811Z,1.40
2023-01-31T01:12:18.602Z,1.40
2023-01-31T01:17:20.842Z,1.40
2023-01-31T01:22:24.149Z,1.50
2023-01-31T01:27:27.295Z,1.50
2023-01-31T01:32:29.623Z,1.50
2023-01-31T01:37:31.605Z,1.50
2023-01-31T01:42:36.313Z,1.50
2023-01-31T01:47:52.389Z,1.50
2023-01-31T01:53:05.473Z,1.40
2023-01-31T01:58:23.073Z,1.40
2023-01-31T02:03:24.959Z,1.40
2023-01-31T02:08:30.190Z,1.40
2023-01-31T02:13:33.268Z,1.40
2023-01-31T02:18:35.382Z,1.40
2023-01-31T02:23:43.313Z,1.30
2023-01-31T02:29:13.092Z,1.30
2023-01-31T02:34:30.489Z,1.30
2023-01-31T02:39:46.142Z,1.30
2023-01-31T02:45:22.003Z,1.40
2023-01-31T02:50:30.718Z,1.40
2023-01-31T02:55:58.761Z,1.40
2023-01-31T03:01:04.184Z,1.40
2023-01-31T03:06:24.568Z,1.40
2023-01-31T03:11:53.306Z,1.40
2023-01-31T03:17:33.014Z,1.40
2023-01-31T03:22:41.142Z,1.40
2023-01-31T03:27:48.554Z,1.40
2023-01-31T03:33:09.394Z,1.30
2023-01-31T03:38:21.433Z,1.30
2023-01-31T03:43:54.364Z,1.20
2023-01-31T03:48:58.062Z,1.20
2023-01-31T03:54:05.746Z,1.20
2023-01-31T03:59:20.074Z,1.20
2023-01-31T04:04:26.956Z,1.20
2023-01-31T04:09:29.729Z,1.10
2023-01-31T04:14:32.088Z,1.10
2023-01-31T04:19:34.006Z,1.10
2023-01-31T04:24:36.729Z,1.00
2023-01-31T04:29:38.572Z,1.00
2023-01-31T04:34:40.317Z,1.00
2023-01-31T04:39:42.015Z,1.10
2023-01-31T04:44:43.888Z,1.10
2023-01-31T04:49:45.754Z,1.20
2023-01-31T04:54:47.533Z,1.20
2023-01-31T04:59:50.398Z,1.20
2023-01-31T05:04:52.168Z,1.20
2023-01-31T05:09:53.996Z,1.20
2023-01-31T05:14:55.771Z,1.20
2023-01-31T05:19:57.611Z,1.20
2023-01-31T05:24:59.346Z,1.20
2023-01-31T05:30:01.088Z,1.30
2023-01-31T05:35:03.725Z,1.30
2023-01-31T05:40:06.039Z,1.30
2023-01-31T05:45:09.861Z,1.20
2023-01-31T05:50:11.922Z,1.20
2023-01-31T05:55:13.680Z,1.20
2023-01-31T06:00:16.237Z,1.20
2023-01-31T06:05:18.413Z,1.20
2023-01-31T06:10:21.224Z,1.20
2023-01-31T06:15:23.348Z,1.20
2023-01-31T06:20:25.730Z,1.30
2023-01-31T06:25:27.829Z,1.30
2023-01-31T06:30:29.816Z,1.20
2023-01-31T06:35:33.764Z,1.20
2023-01-31T06:40:38.657Z,1.20
2023-01-31T06:45:43.226Z,1.30
2023-01-31T06:50:45.812Z,1.30
2023-01-31T06:55:47.558Z,1.30
2023-01-31T07:00:49.503Z,1.30
2023-01-31T07:05:51.269Z,1.30
2023-01-31T07:10:53.506Z,1.30
2023-01-31T07:15:56.761Z,1.30
2023-01-31T07:20:58.545Z,1.30
2023-01-31T07:26:04.008Z,1.40
2023-01-31T07:31:12.426Z,1.40
2023-01-31T07:36:16.341Z,1.40
2023-01-31T07:41:18.095Z,1.40
2023-01-31T07:46:20.117Z,1.40
2023-01-31T07:51:21.982Z,1.40
2023-01-31T07:56:23.834Z,1.40
2023-01-31T08:01:46.230Z,1.50
2023-01-31T08:06:49.630Z,1.40
2023-01-31T08:11:52.010Z,1.40
2023-01-31T08:16:55.626Z,1.40
2023-01-31T08:21:57.487Z,1.40
2023-01-31T08:26:59.869Z,1.40
2023-01-31T08:32:03.196Z,1.40
2023-01-31T08:37:05.021Z,1.50
2023-01-31T08:42:06.807Z,1.50
2023-01-31T08:47:08.579Z,1.50
2023-01-31T08:52:10.327Z,1.60
2023-01-31T08:57:12.061Z,1.60
2023-01-31T09:02:13.851Z,1.60
2023-01-31T09:07:15.783Z,1.70
2023-01-31T09:12:17.647Z,1.70
2023-01-31T09:17:19.558Z,1.70
2023-01-31T09:22:22.695Z,1.70
2023-01-31T09:27:24.437Z,1.70
2023-01-31T09:32:26.256Z,1.70
2023-01-31T09:37:30.903Z,1.70
2023-01-31T09:42:43.642Z,1.70
2023-01-31T09:47:52.304Z,1.80
2023-01-31T09:52:54.244Z,1.90
2023-01-31T09:58:21.724Z,1.80
2023-01-31T10:03:48.272Z,1.80
2023-01-31T10:09:05.534Z,1.90
2023-01-31T10:14:23.989Z,1.90
2023-01-31T10:19:32.926Z,1.90
2023-01-31T10:24:48.045Z,1.80
2023-01-31T10:29:55.334Z,1.80
2023-01-31T10:35:31.965Z,1.80
2023-01-31T10:40:39.167Z,1.80
2023-01-31T10:45:41.200Z,1.90
2023-01-31T10:51:13.733Z,1.90
2023-01-31T10:56:38.091Z,1.90
2023-01-31T11:01:39.898Z,1.90
2023-01-31T11:06:41.603Z,2.00
2023-01-31T11:11:55.132Z,2.00
2023-01-31T11:17:24.238Z,2.00
2023-01-31T11:22:30.309Z,2.00
2023-01-31T11:27:40.274Z,2.20
2023-01-31T11:32:44.998Z,2.10
2023-01-31T11:37:53.757Z,2.20
2023-01-31T11:43:20.844Z,2.20
2023-01-31T11:48:44.097Z,2.10
2023-01-31T11:53:50.871Z,2.10
2023-01-31T11:58:55.204Z,2.20
2023-01-31T12:04:03.620Z,2.20
2023-01-31T12:09:18.462Z,2.30
2023-01-31T12:14:20.919Z,2.30
2023-01-31T12:19:54.360Z,2.20
2023-01-31T12:25:18.854Z,2.20
2023-01-31T12:31:11.518Z,2.20
2023-01-31T12:36:32.046Z,2.20
2023-01-31T12:41:39.453Z,2.30
2023-01-31T12:46:50.654Z,2.30
2023-01-31T12:52:05.851Z,2.30
2023-01-31T12:57:42.530Z,2.30
2023-01-31T13:03:14.505Z,2.30
2023-01-31T13:08:21.293Z,2.30
2023-01-31T13:13:27.732Z,2.30
2023-01-31T13:18:34.747Z,2.30
2023-01-31T13:23:55.131Z,2.30
2023-01-31T13:29:21.930Z,2.30
2023-01-31T13:34:40.326Z,2.40
2023-01-31T13:39:50.410Z,2.40
2023-01-31T13:44:54.334Z,2.40
2023-01-31T13:50:07.845Z,2.50
2023-01-31T13:55:20.760Z,2.40
2023-01-31T14:00:46.882Z,2.40
2023-01-31T14:06:00.763Z,2.50
2023-01-31T14:11:25.377Z,2.50
2023-01-31T14:16:44.043Z,2.50
2023-01-31T14:21:57.868Z,2.50
2023-01-31T14:26:59.679Z,2.50
2023-01-31T14:32:14.480Z,2.50
2023-01-31T14:37:26.623Z,2.50
2023-01-31T14:42:53.047Z,2.50
2023-01-31T14:48:38.298Z,2.40
2023-01-31T14:54:17.788Z,2.40
2023-01-31T14:59:37.878Z,2.40
2023-01-31T15:04:40.227Z,2.30
2023-01-31T15:09:41.978Z,2.30
2023-01-31T15:14:49.138Z,2.30
2023-01-31T15:19:59.164Z,2.30
2023-01-31T15:25:07.488Z,2.30
2023-01-31T15:30:18.452Z,2.30
2023-01-31T15:35:37.058Z,2.30
2023-01-31T15:40:38.847Z,2.20
2023-01-31T15:45:40.631Z,2.30
2023-01-31T15:50:54.801Z,2.30
2023-01-31T15:56:02.565Z,2.20
2023-01-31T16:01:05.246Z,2.20
2023-01-31T16:06:24.142Z,2.20
2023-01-31T16:11:26.758Z,2.20
2023-01-31T16:16:29.652Z,2.10
2023-01-31T16:21:41.297Z,2.10
2023-01-31T16:27:09.307Z,2.10
2023-01-31T16:32:21.704Z,2.10
2023-01-31T16:37:43.470Z,2.20
2023-01-31T16:42:45.369Z,2.20
2023-01-31T16:47:51.201Z,2.20
2023-01-31T16:53:15.921Z,2.20
2023-01-31T16:58:50.670Z,2.20
2023-01-31T17:04:04.504Z,2.20
2023-01-31T17:09:15.876Z,2.30
2023-01-31T17:14:17.594Z,2.30
2023-01-31T17:19:19.744Z,2.20
2023-01-31T17:24:24.930Z,2.20
2023-01-31T17:29:27.372Z,2.20
2023-01-31T17:34:29.129Z,2.20
2023-01-31T17:39:30.900Z,2.20
2023-01-31T17:44:32.691Z,2.10
2023-01-31T17:49:35.020Z,2.10
2023-01-31T17:54:36.855Z,2.10
2023-01-31T17:59:38.601Z,2.00
2023-01-31T18:04:40.388Z,2.00
2023-01-31T18:09:42.102Z,2.10
2023-01-31T18:14:43.901Z,2.10
2023-01-31T18:19:45.841Z,2.10
2023-01-31T18:24:47.582Z,2.00
2023-01-31T18:29:50.002Z,2.00
2023-01-31T18:34:51.766Z,1.90
2023-01-31T18:39:54.157Z,1.90
2023-01-31T18:44:55.897Z,1.90
2023-01-31T18:49:57.674Z,1.80
2023-01-31T18:54:59.490Z,1.80
2023-01-31T19:00:01.208Z,1.80
2023-01-31T19:05:03.030Z,1.70
2023-01-31T19:10:05.094Z,1.80
2023-01-31T19:15:12.366Z,1.70
2023-01-31T19:20:14.277Z,1.70
2023-01-31T19:25:16.088Z,1.70
2023-01-31T19:30:17.932Z,1.70
2023-01-31T19:35:20.131Z,1.70
2023-01-31T19:40:22.332Z,1.70
2023-01-31T19:45:24.342Z,1.80
2023-01-31T19:50:26.567Z,1.70
2023-01-31T19:55:28.345Z,1.70
2023-01-31T20:00:30.182Z,1.70
2023-01-31T20:05:32.824Z,1.70
2023-01-31T20:10:35.718Z,1.70
2023-01-31T20:15:37.570Z,1.70
2023-01-31T20:20:39.349Z,1.70
2023-01-31T20:25:41.144Z,1.80
2023-01-31T20:30:43.223Z,1.80
2023-01-31T20:35:45.477Z,1.80
2023-01-31T20:40:51.905Z,1.80
2023-01-31T20:45:53.801Z,1.80
2023-01-31T20:50:56.710Z,1.80
2023-01-31T20:56:06.974Z,1.80
2023-01-31T21:01:09.950Z,1.80
2023-01-31T21:06:11.826Z,1.80
2023-01-31T21:11:14.466Z,1.80
2023-01-31T21:16:16.722Z,1.80
2023-01-31T21:21:23.717Z,1.80
2023-01-31T21:26:27.056Z,1.80
2023-01-31T21:31:29.684Z,1.80
2023-01-31T21:36:33.975Z,1.80
2023-01-31T21:41:54.465Z,1.80
2023-01-31T21:46:56.220Z,1.80
2023-01-31T21:51:57.940Z,1.80
2023-01-31T21:57:00.111Z,1.80
2023-01-31T22:02:02.005Z,1.80
2023-01-31T22:07:04.225Z,1.80
2023-01-31T22:12:06.398Z,1.80
2023-01-31T22:17:08.302Z,1.80
2023-01-31T22:22:10.020Z,1.80
2023-01-31T22:27:11.734Z,1.80
2023-01-31T22:32:13.458Z,1.90
2023-01-31T22:37:15.174Z,1.90
2023-01-31T22:42:16.953Z,1.90
2023-01-31T22:47:18.711Z,1.90
2023-01-31T22:52:20.544Z,1.90
2023-01-31T22:57:22.408Z,1.90
2023-01-31T23:02:24.166Z,1.90
2023-01-31T23:07:25.935Z,1.90
2023-01-31T23:12:27.791Z,1.90
2023-01-31T23:17:38.763Z,1.90
2023-01-31T23:22:41.005Z,1.90
2023-01-31T23:27:43.608Z,1.90
2023-01-31T23:32:45.614Z,2.00
2023-01-31T23:37:47.328Z,1.90
2023-01-31T23:42:49.554Z,1.90
2023-01-31T23:47:51.309Z,1.90
2023-01-31T23:52:53.028Z,1.90
2023-01-31T23:57:54.822Z,1.90
